createdAt,value
2019-04-21T00:00:37.383Z,16.28
2019-04-21T00:01:16.415Z,16.28
2019-04-21T00:01:54.523Z,16.22
2019-04-21T00:02:35.775Z,16.21
2019-04-21T00:03:15.203Z,16.29
2019-04-21T00:03:52.128Z,16.27
2019-04-21T00:04:39.391Z,16.23
2019-04-21T00:05:24.754Z,16.19
2019-04-21T00:05:57.558Z,16.14
2019-04-21T00:06:35.324Z,16.11
2019-04-21T00:07:15.722Z,16.11
2019-04-21T00:07:51.231Z,16.07
2019-04-21T00:09:11.403Z,16.02
2019-04-21T00:09:58.209Z,16.02
2019-04-21T00:10:27.261Z,16.02
2019-04-21T00:11:04.598Z,15.99
2019-04-21T00:11:41.326Z,16.00
2019-04-21T00:12:51.795Z,16.00
2019-04-21T00:13:27.941Z,15.92
2019-04-21T00:14:03.349Z,15.92
2019-04-21T00:14:39.807Z,15.93
2019-04-21T00:15:14.552Z,15.94
2019-04-21T00:15:48.843Z,15.92
2019-04-21T00:16:33.085Z,15.95
2019-04-21T00:17:05.068Z,15.91
2019-04-21T00:17:36.827Z,15.92
2019-04-21T00:18:23.291Z,15.90
2019-04-21T00:19:21.766Z,15.89
2019-04-21T00:20:11.492Z,15.88
2019-04-21T00:20:42.449Z,15.87
2019-04-21T00:21:23.236Z,15.86
2019-04-21T00:21:55.471Z,15.86
2019-04-21T00:22:43.151Z,15.83
2019-04-21T00:23:24.906Z,15.84
2019-04-21T00:24:00.340Z,15.80
2019-04-21T00:24:37.441Z,15.77
2019-04-21T00:25:16.319Z,15.78
2019-04-21T00:25:48.764Z,15.74
2019-04-21T00:26:33.298Z,15.70
2019-04-21T00:27:14.153Z,15.70
2019-04-21T00:27:47.517Z,15.67
2019-04-21T00:28:34.668Z,15.68
2019-04-21T00:29:11.380Z,15.64
2019-04-21T00:29:45.422Z,15.61
2019-04-21T00:30:21.684Z,15.58
2019-04-21T00:30:57.910Z,15.64
2019-04-21T00:31:36.709Z,15.64
2019-04-21T00:32:11.468Z,15.61
2019-04-21T00:32:46.758Z,15.65
2019-04-21T00:33:17.586Z,15.67
2019-04-21T00:33:49.656Z,15.65
2019-04-21T00:34:25.795Z,15.61
2019-04-21T00:35:08.238Z,15.57
2019-04-21T00:35:45.483Z,15.56
2019-04-21T00:36:22.700Z,15.53
2019-04-21T00:37:05.789Z,15.50
2019-04-21T00:37:58.888Z,15.48
2019-04-21T00:38:33.879Z,15.45
2019-04-21T00:39:26.604Z,15.42
2019-04-21T00:40:22.420Z,15.40
2019-04-21T00:41:03.817Z,15.41
2019-04-21T00:41:40.232Z,15.38
2019-04-21T00:42:14.345Z,15.34
2019-04-21T00:42:52.149Z,15.32
2019-04-21T00:43:28.213Z,15.28
2019-04-21T00:44:04.522Z,15.25
2019-04-21T00:44:38.132Z,15.21
2019-04-21T00:45:20.659Z,15.17
2019-04-21T00:45:51.809Z,15.16
2019-04-21T00:46:34.786Z,15.19
2019-04-21T00:47:13.965Z,15.15
2019-04-21T00:48:00.625Z,15.13
2019-04-21T00:48:36.349Z,15.11
2019-04-21T00:49:05.904Z,15.12
2019-04-21T00:49:55.409Z,15.13
2019-04-21T00:50:33.725Z,15.13
2019-04-21T00:52:02.017Z,15.06
2019-04-21T00:53:06.986Z,15.12
2019-04-21T00:53:41.861Z,15.08
2019-04-21T00:54:12.919Z,14.99
2019-04-21T00:55:01.767Z,15.06
2019-04-21T00:55:38.638Z,15.01
2019-04-21T00:56:15.382Z,14.97
2019-04-21T00:56:54.208Z,14.93
2019-04-21T00:57:32.372Z,14.90
2019-04-21T00:58:05.179Z,14.92
2019-04-21T00:58:39.308Z,14.86
2019-04-21T00:59:20.111Z,14.92
2019-04-21T00:59:54.369Z,14.87
2019-04-21T01:00:33.983Z,14.85
2019-04-21T01:01:12.618Z,14.79
2019-04-21T01:01:44.656Z,14.72
2019-04-21T01:02:27.891Z,14.76
2019-04-21T01:03:03.296Z,14.72
2019-04-21T01:03:45.677Z,14.72
2019-04-21T01:04:15.565Z,14.70
2019-04-21T01:05:01.630Z,14.69
2019-04-21T01:05:37.448Z,14.66
2019-04-21T01:06:14.365Z,14.67
2019-04-21T01:06:53.030Z,14.64
2019-04-21T01:07:28.750Z,14.61
2019-04-21T01:07:59.456Z,14.61
2019-04-21T01:08:38.099Z,14.55
2019-04-21T01:09:16.585Z,14.55
2019-04-21T01:09:48.537Z,14.58
2019-04-21T01:10:24.914Z,14.57
2019-04-21T01:11:01.508Z,14.55
2019-04-21T01:11:49.532Z,14.54
2019-04-21T01:12:25.464Z,14.57
2019-04-21T01:13:02.598Z,14.60
2019-04-21T01:13:41.198Z,14.60
2019-04-21T01:14:27.241Z,14.62
2019-04-21T01:14:55.319Z,14.62
2019-04-21T01:15:37.462Z,14.64
2019-04-21T01:16:12.614Z,14.63
2019-04-21T01:16:45.760Z,14.66
2019-04-21T01:17:21.766Z,14.64
2019-04-21T01:18:06.366Z,14.66
2019-04-21T01:18:38.139Z,14.70
2019-04-21T01:19:16.715Z,14.68
2019-04-21T01:19:53.288Z,14.79
2019-04-21T01:20:17.360Z,14.74
2019-04-21T01:20:48.056Z,14.76
2019-04-21T01:21:24.020Z,14.73
2019-04-21T01:22:00.209Z,14.73
2019-04-21T01:22:35.943Z,14.68
2019-04-21T01:23:12.728Z,14.66
2019-04-21T01:23:48.735Z,14.67
2019-04-21T01:24:30.811Z,14.68
2019-04-21T01:25:08.986Z,14.67
2019-04-21T01:25:46.051Z,14.64
2019-04-21T01:26:31.185Z,14.64
2019-04-21T01:27:04.530Z,14.65
2019-04-21T01:27:52.077Z,14.67
2019-04-21T01:28:24.138Z,14.68
2019-04-21T01:29:07.042Z,14.60
2019-04-21T01:29:45.996Z,14.61
2019-04-21T01:30:23.749Z,14.55
2019-04-21T01:30:56.797Z,14.55
2019-04-21T01:31:32.915Z,14.52
2019-04-21T01:32:19.087Z,14.45
2019-04-21T01:32:53.139Z,14.43
2019-04-21T01:33:33.514Z,14.46
2019-04-21T01:34:10.128Z,14.51
2019-04-21T01:34:45.431Z,14.53
2019-04-21T01:35:21.086Z,14.52
2019-04-21T01:35:54.860Z,14.54
2019-04-21T01:36:35.867Z,14.55
2019-04-21T01:37:10.528Z,14.51
2019-04-21T01:38:00.083Z,14.54
2019-04-21T01:38:34.237Z,14.54
2019-04-21T01:39:05.269Z,14.54
2019-04-21T01:39:47.905Z,14.58
2019-04-21T01:40:37.677Z,14.55
2019-04-21T01:41:03.556Z,14.54
2019-04-21T01:41:41.598Z,14.50
2019-04-21T01:42:11.081Z,14.48
2019-04-21T01:42:50.994Z,14.49
2019-04-21T01:43:27.968Z,14.52
2019-04-21T01:44:01.541Z,14.53
2019-04-21T01:44:58.181Z,14.55
2019-04-21T01:45:15.717Z,14.53
2019-04-21T01:45:53.956Z,14.47
2019-04-21T01:46:35.427Z,14.48
2019-04-21T01:47:10.249Z,14.45
2019-04-21T01:47:46.241Z,14.51
2019-04-21T01:48:25.956Z,14.49
2019-04-21T01:49:01.491Z,14.48
2019-04-21T01:49:34.942Z,14.48
2019-04-21T01:50:14.100Z,14.46
2019-04-21T01:50:55.490Z,14.45
2019-04-21T01:51:38.424Z,14.44
2019-04-21T01:52:24.596Z,14.39
2019-04-21T01:53:02.123Z,14.35
2019-04-21T01:53:50.493Z,14.32
2019-04-21T01:54:43.597Z,14.35
2019-04-21T01:55:28.985Z,14.36
2019-04-21T01:56:24.088Z,14.33
2019-04-21T01:57:11.443Z,14.34
2019-04-21T01:57:59.405Z,14.27
2019-04-21T01:58:35.741Z,14.25
2019-04-21T01:59:06.995Z,14.22
2019-04-21T01:59:52.760Z,14.20
2019-04-21T02:00:41.193Z,14.17
2019-04-21T02:01:27.505Z,14.16
2019-04-21T02:02:02.071Z,14.19
2019-04-21T02:02:47.645Z,14.13
2019-04-21T02:03:34.386Z,14.08
2019-04-21T02:04:09.412Z,14.12
2019-04-21T02:04:37.194Z,14.08
2019-04-21T02:05:17.218Z,14.05
2019-04-21T02:05:53.005Z,14.05
2019-04-21T02:06:27.637Z,14.09
2019-04-21T02:07:04.237Z,14.08
2019-04-21T02:07:41.820Z,14.09
2019-04-21T02:08:20.101Z,14.10
2019-04-21T02:08:48.814Z,14.10
2019-04-21T02:09:38.163Z,14.07
2019-04-21T02:10:20.877Z,14.06
2019-04-21T02:10:54.681Z,14.06
2019-04-21T02:11:31.253Z,14.06
2019-04-21T02:12:12.323Z,14.10
2019-04-21T02:12:44.487Z,14.08
2019-04-21T02:13:20.221Z,14.06
2019-04-21T02:14:06.007Z,14.03
2019-04-21T02:14:41.462Z,14.07
2019-04-21T02:15:17.092Z,14.11
2019-04-21T02:15:56.113Z,14.06
2019-04-21T02:16:28.210Z,14.08
2019-04-21T02:17:10.447Z,14.10
2019-04-21T02:17:43.337Z,14.08
2019-04-21T02:18:22.110Z,14.11
2019-04-21T02:18:54.430Z,14.14
2019-04-21T02:19:31.517Z,14.13
2019-04-21T02:20:09.415Z,14.12
2019-04-21T02:20:41.342Z,14.11
2019-04-21T02:21:21.831Z,14.12
2019-04-21T02:22:00.884Z,14.11
2019-04-21T02:22:57.479Z,14.10
2019-04-21T02:24:05.011Z,14.15
2019-04-21T02:24:42.045Z,14.10
2019-04-21T02:25:20.153Z,14.08
2019-04-21T02:25:57.488Z,14.06
2019-04-21T02:26:37.510Z,14.05
2019-04-21T02:27:14.945Z,14.01
2019-04-21T02:27:54.716Z,14.03
2019-04-21T02:28:29.685Z,14.02
2019-04-21T02:29:10.678Z,14.01
2019-04-21T02:29:41.164Z,14.00
2019-04-21T02:30:27.858Z,13.98
2019-04-21T02:32:14.350Z,13.91
2019-04-21T02:33:02.803Z,13.89
2019-04-21T02:33:38.907Z,13.85
2019-04-21T02:34:04.580Z,13.91
2019-04-21T02:34:52.414Z,13.94
2019-04-21T02:37:13.975Z,13.91
2019-04-21T02:38:40.251Z,13.88
2019-04-21T02:39:57.261Z,13.86
2019-04-21T02:40:29.442Z,13.86
2019-04-21T02:41:01.451Z,13.81
2019-04-21T02:41:55.824Z,13.77
2019-04-21T02:42:18.673Z,13.78
2019-04-21T02:43:09.390Z,13.84
2019-04-21T02:44:23.936Z,13.84
2019-04-21T02:46:06.989Z,13.77
2019-04-21T02:46:50.249Z,13.73
2019-04-21T02:47:27.471Z,13.60
2019-04-21T02:48:38.840Z,13.54
2019-04-21T02:49:37.737Z,13.53
2019-04-21T02:50:27.751Z,13.55
2019-04-21T02:51:03.900Z,13.58
2019-04-21T02:51:42.153Z,13.52
2019-04-21T02:52:31.354Z,13.53
2019-04-21T02:54:40.567Z,13.55
2019-04-21T02:54:54.119Z,13.59
2019-04-21T02:56:11.161Z,13.58
2019-04-21T02:56:51.488Z,13.54
2019-04-21T02:58:09.983Z,13.51
2019-04-21T02:59:49.417Z,13.51
2019-04-21T03:01:33.374Z,13.45
2019-04-21T03:02:25.079Z,13.48
2019-04-21T03:03:13.417Z,13.52
2019-04-21T03:04:10.933Z,13.46
2019-04-21T03:04:57.306Z,13.46
2019-04-21T03:05:48.762Z,13.40
2019-04-21T03:06:46.673Z,13.42
2019-04-21T03:07:27.681Z,13.44
2019-04-21T03:08:03.825Z,13.46
2019-04-21T03:09:53.134Z,13.46
2019-04-21T03:11:59.807Z,13.46
2019-04-21T03:12:22.333Z,13.44
2019-04-21T03:13:08.940Z,13.42
2019-04-21T03:14:28.291Z,13.40
2019-04-21T03:15:03.948Z,13.37
2019-04-21T03:16:16.996Z,13.34
2019-04-21T03:16:40.577Z,13.31
2019-04-21T03:17:35.516Z,13.31
2019-04-21T03:18:08.388Z,13.31
2019-04-21T03:20:54.860Z,13.33
2019-04-21T03:21:57.486Z,13.35
2019-04-21T03:22:24.265Z,13.33
2019-04-21T03:23:13.379Z,13.32
2019-04-21T03:23:46.067Z,13.30
2019-04-21T03:24:18.401Z,13.33
2019-04-21T03:25:41.885Z,13.34
2019-04-21T03:26:19.891Z,13.28
2019-04-21T03:27:01.058Z,13.28
2019-04-21T03:27:51.216Z,13.25
2019-04-21T03:28:06.469Z,13.20
2019-04-21T03:28:48.018Z,13.20
2019-04-21T03:29:32.834Z,13.23
2019-04-21T03:29:59.419Z,13.20
2019-04-21T03:31:39.283Z,13.25
2019-04-21T03:33:53.840Z,13.23
2019-04-21T03:34:15.213Z,13.21
2019-04-21T03:34:51.467Z,13.18
2019-04-21T03:36:40.078Z,13.19
2019-04-21T03:37:33.226Z,13.16
2019-04-21T03:38:05.830Z,13.18
2019-04-21T03:39:17.944Z,13.14
2019-04-21T03:41:12.743Z,13.17
2019-04-21T03:42:03.315Z,13.13
2019-04-21T03:43:06.162Z,13.13
2019-04-21T03:43:44.695Z,13.09
2019-04-21T03:44:28.328Z,13.08
2019-04-21T03:44:55.155Z,13.05
2019-04-21T03:46:20.045Z,13.05
2019-04-21T03:47:01.577Z,13.05
2019-04-21T03:48:11.542Z,13.00
2019-04-21T03:48:47.152Z,12.96
2019-04-21T03:49:33.702Z,13.03
2019-04-21T03:50:07.116Z,12.96
2019-04-21T03:50:33.737Z,12.89
2019-04-21T03:51:23.449Z,12.87
2019-04-21T03:51:54.943Z,12.86
2019-04-21T03:52:31.842Z,12.78
2019-04-21T03:53:09.577Z,12.80
2019-04-21T03:53:38.164Z,12.81
2019-04-21T03:54:16.054Z,12.81
2019-04-21T03:55:50.381Z,12.81
2019-04-21T03:56:06.757Z,12.86
2019-04-21T03:57:38.566Z,12.73
2019-04-21T03:58:47.445Z,12.78
2019-04-21T03:59:55.636Z,12.76
2019-04-21T04:01:40.643Z,12.73
2019-04-21T04:02:36.628Z,12.73
2019-04-21T04:03:45.991Z,12.70
2019-04-21T04:04:26.384Z,12.70
2019-04-21T04:05:15.076Z,12.65
2019-04-21T04:06:03.674Z,12.60
2019-04-21T04:07:08.212Z,12.57
2019-04-21T04:08:04.753Z,12.55
2019-04-21T04:08:52.498Z,12.55
2019-04-21T04:09:45.156Z,12.56
2019-04-21T04:10:08.401Z,12.51
2019-04-21T04:10:51.930Z,12.51
2019-04-21T04:11:30.013Z,12.47
2019-04-21T04:12:35.056Z,12.43
2019-04-21T04:13:14.121Z,12.43
2019-04-21T04:13:55.808Z,12.43
2019-04-21T04:14:34.187Z,12.40
2019-04-21T04:15:03.010Z,12.37
2019-04-21T04:17:04.819Z,12.38
2019-04-21T04:17:36.491Z,12.37
2019-04-21T04:18:17.760Z,12.35
2019-04-21T04:19:34.601Z,12.36
2019-04-21T04:20:09.050Z,12.36
2019-04-21T04:21:28.373Z,12.36
2019-04-21T04:22:14.287Z,12.34
2019-04-21T04:22:45.974Z,12.36
2019-04-21T04:23:08.081Z,12.38
2019-04-21T04:23:58.159Z,12.32
2019-04-21T04:24:33.985Z,12.31
2019-04-21T04:25:42.871Z,12.28
2019-04-21T04:27:01.581Z,12.25
2019-04-21T04:27:37.723Z,12.26
2019-04-21T04:28:27.829Z,12.24
2019-04-21T04:28:58.044Z,12.22
2019-04-21T04:30:08.004Z,12.49
2019-04-21T04:30:39.547Z,12.40
2019-04-21T04:31:25.893Z,12.31
2019-04-21T04:31:53.164Z,12.27
2019-04-21T04:33:14.222Z,12.35
2019-04-21T04:34:10.455Z,12.31
2019-04-21T04:35:03.388Z,12.29
2019-04-21T04:36:23.919Z,12.22
2019-04-21T04:37:32.115Z,12.15
2019-04-21T04:38:20.157Z,12.15
2019-04-21T04:39:48.675Z,12.14
2019-04-21T04:40:51.653Z,12.13
2019-04-21T04:41:38.251Z,12.14
2019-04-21T04:42:21.713Z,12.14
2019-04-21T04:43:11.686Z,12.11
2019-04-21T04:43:44.711Z,12.13
2019-04-21T04:44:39.543Z,12.13
2019-04-21T04:46:22.336Z,12.17
2019-04-21T04:47:04.548Z,12.22
2019-04-21T04:47:22.803Z,12.16
2019-04-21T04:48:05.804Z,12.12
2019-04-21T04:48:51.448Z,12.08
2019-04-21T04:49:57.263Z,12.17
2019-04-21T04:50:53.446Z,12.15
2019-04-21T04:51:14.822Z,12.15
2019-04-21T04:52:14.230Z,12.16
2019-04-21T04:53:12.130Z,12.11
2019-04-21T04:53:44.024Z,12.08
2019-04-21T04:54:32.423Z,12.23
2019-04-21T04:55:01.938Z,12.19
2019-04-21T04:55:43.418Z,12.15
2019-04-21T04:56:58.661Z,12.18
2019-04-21T04:57:33.858Z,12.18
2019-04-21T05:00:14.299Z,12.13
2019-04-21T05:01:26.753Z,12.14
2019-04-21T05:02:33.279Z,12.01
2019-04-21T05:03:05.542Z,12.05
2019-04-21T05:04:02.567Z,11.98
2019-04-21T05:04:23.721Z,12.00
2019-04-21T05:06:06.568Z,11.93
2019-04-21T05:06:42.662Z,11.92
2019-04-21T05:07:07.100Z,11.85
2019-04-21T05:08:39.506Z,11.87
2019-04-21T05:10:07.519Z,11.92
2019-04-21T05:11:01.463Z,11.96
2019-04-21T05:11:43.174Z,11.99
2019-04-21T05:12:02.991Z,12.01
2019-04-21T05:12:38.845Z,11.99
2019-04-21T05:13:21.294Z,11.96
2019-04-21T05:14:02.892Z,11.98
2019-04-21T05:14:30.126Z,12.01
2019-04-21T05:15:09.733Z,12.04
2019-04-21T05:15:50.043Z,12.02
2019-04-21T05:16:36.655Z,11.99
2019-04-21T05:17:25.287Z,11.99
2019-04-21T05:17:49.159Z,12.01
2019-04-21T05:18:17.853Z,12.02
2019-04-21T05:19:53.982Z,12.11
2019-04-21T05:20:15.876Z,12.08
2019-04-21T05:20:56.360Z,12.07
2019-04-21T05:21:30.210Z,12.15
2019-04-21T05:21:57.122Z,12.14
2019-04-21T05:22:41.218Z,12.10
2019-04-21T05:23:06.328Z,12.05
2019-04-21T05:23:42.865Z,12.02
2019-04-21T05:24:21.493Z,12.03
2019-04-21T05:24:55.364Z,12.03
2019-04-21T05:25:27.772Z,12.02
2019-04-21T05:26:07.117Z,12.11
2019-04-21T05:26:48.035Z,12.11
2019-04-21T05:27:30.728Z,12.14
2019-04-21T05:28:08.963Z,12.22
2019-04-21T05:28:44.582Z,12.19
2019-04-21T05:29:30.922Z,12.18
2019-04-21T05:30:26.750Z,12.26
2019-04-21T05:31:19.708Z,12.22
2019-04-21T05:32:04.997Z,12.30
2019-04-21T05:32:58.430Z,12.31
2019-04-21T05:33:54.318Z,12.26
2019-04-21T05:34:30.578Z,12.24
2019-04-21T05:35:14.118Z,12.21
2019-04-21T05:36:12.955Z,12.25
2019-04-21T05:37:18.790Z,12.25
2019-04-21T05:37:59.906Z,12.33
2019-04-21T05:38:53.440Z,12.28
2019-04-21T05:39:36.238Z,12.32
2019-04-21T05:40:20.073Z,12.42
2019-04-21T05:40:55.215Z,12.48
2019-04-21T05:41:30.156Z,12.49
2019-04-21T05:42:07.707Z,12.49
2019-04-21T05:42:52.642Z,12.48
2019-04-21T05:43:32.600Z,12.51
2019-04-21T05:44:13.264Z,12.51
2019-04-21T05:44:58.827Z,12.58
2019-04-21T05:45:29.745Z,12.62
2019-04-21T05:46:21.248Z,12.62
2019-04-21T05:46:46.769Z,12.65
2019-04-21T05:47:26.527Z,12.65
2019-04-21T05:48:12.136Z,12.70
2019-04-21T05:48:39.149Z,12.66
2019-04-21T05:49:21.985Z,12.66
2019-04-21T05:50:06.520Z,12.70
2019-04-21T05:50:46.238Z,12.76
2019-04-21T05:51:20.337Z,12.78
2019-04-21T05:51:59.768Z,12.76
2019-04-21T05:52:45.936Z,12.76
2019-04-21T05:54:17.777Z,12.83
2019-04-21T05:54:52.889Z,12.80
2019-04-21T05:55:26.173Z,12.82
2019-04-21T05:56:05.016Z,12.83
2019-04-21T05:57:17.164Z,12.82
2019-04-21T05:57:54.383Z,12.81
2019-04-21T05:58:31.706Z,12.86
2019-04-21T05:59:07.856Z,12.90
2019-04-21T05:59:51.496Z,12.94
2019-04-21T06:00:39.067Z,12.94
2019-04-21T06:01:28.771Z,13.05
2019-04-21T06:01:46.421Z,12.98
2019-04-21T06:02:22.338Z,13.00
2019-04-21T06:03:06.590Z,12.98
2019-04-21T06:03:44.833Z,13.07
2019-04-21T06:04:26.207Z,13.08
2019-04-21T06:05:39.027Z,13.15
2019-04-21T06:06:14.169Z,13.17
2019-04-21T06:06:47.679Z,13.25
2019-04-21T06:07:23.072Z,13.22
2019-04-21T06:08:00.508Z,13.27
2019-04-21T06:08:53.677Z,13.28
2019-04-21T06:09:22.520Z,13.28
2019-04-21T06:10:34.657Z,13.45
2019-04-21T06:11:14.901Z,13.49
2019-04-21T06:11:50.979Z,13.45
2019-04-21T06:12:29.904Z,13.47
2019-04-21T06:13:06.044Z,13.53
2019-04-21T06:14:21.724Z,13.60
2019-04-21T06:15:00.929Z,13.61
2019-04-21T06:15:37.294Z,13.62
2019-04-21T06:16:12.157Z,13.63
2019-04-21T06:16:55.593Z,13.64
2019-04-21T06:17:31.528Z,13.68
2019-04-21T06:18:05.352Z,13.74
2019-04-21T06:18:48.788Z,13.74
2019-04-21T06:19:27.531Z,13.93
2019-04-21T06:20:38.843Z,13.86
2019-04-21T06:21:10.391Z,13.87
2019-04-21T06:21:45.232Z,13.83
2019-04-21T06:22:27.423Z,13.86
2019-04-21T06:23:03.408Z,13.86
2019-04-21T06:23:40.197Z,13.87
2019-04-21T06:24:15.989Z,13.93
2019-04-21T06:25:21.242Z,13.95
2019-04-21T06:26:29.183Z,13.97
2019-04-21T06:26:59.933Z,14.03
2019-04-21T06:27:34.347Z,14.06
2019-04-21T06:28:03.554Z,14.07
2019-04-21T06:28:49.093Z,14.07
2019-04-21T06:29:22.365Z,14.09
2019-04-21T06:30:45.502Z,14.12
2019-04-21T06:32:17.731Z,14.21
2019-04-21T06:32:45.999Z,14.26
2019-04-21T06:33:07.564Z,14.29
2019-04-21T06:33:44.613Z,14.32
2019-04-21T06:34:49.586Z,14.40
2019-04-21T06:36:36.301Z,14.42
2019-04-21T06:37:59.804Z,14.39
2019-04-21T06:39:04.929Z,14.40
2019-04-21T06:40:21.097Z,14.60
2019-04-21T06:40:56.425Z,14.73
2019-04-21T06:41:32.573Z,14.67
2019-04-21T06:42:06.732Z,14.73
2019-04-21T06:42:52.694Z,14.74
2019-04-21T06:43:41.978Z,14.79
2019-04-21T06:44:01.456Z,14.85
2019-04-21T06:44:41.583Z,14.81
2019-04-21T06:45:18.610Z,14.80
2019-04-21T06:45:54.369Z,14.80
2019-04-21T06:46:38.000Z,14.84
2019-04-21T06:47:09.847Z,14.82
2019-04-21T06:48:24.568Z,14.78
2019-04-21T06:49:00.020Z,14.82
2019-04-21T06:49:30.373Z,14.83
2019-04-21T06:50:18.382Z,14.86
2019-04-21T06:50:52.835Z,14.85
2019-04-21T06:52:20.551Z,14.94
2019-04-21T06:52:52.184Z,14.97
2019-04-21T06:53:33.435Z,15.02
2019-04-21T06:55:15.645Z,15.18
2019-04-21T06:55:54.825Z,15.25
2019-04-21T06:56:38.026Z,15.32
2019-04-21T06:57:06.849Z,15.44
2019-04-21T06:57:48.005Z,15.49
2019-04-21T06:58:18.124Z,15.49
2019-04-21T06:58:57.941Z,15.57
2019-04-21T06:59:34.272Z,15.46
2019-04-21T07:00:15.186Z,15.41
2019-04-21T07:00:50.965Z,15.40
2019-04-21T07:01:34.290Z,15.43
2019-04-21T07:02:21.224Z,15.47
2019-04-21T07:03:29.754Z,15.43
2019-04-21T07:04:05.719Z,15.49
2019-04-21T07:04:40.859Z,15.43
2019-04-21T07:05:13.280Z,15.53
2019-04-21T07:05:58.990Z,15.47
2019-04-21T07:06:31.951Z,15.41
2019-04-21T07:07:05.353Z,15.48
2019-04-21T07:07:43.469Z,15.45
2019-04-21T07:08:28.773Z,15.45
2019-04-21T07:09:10.304Z,15.49
2019-04-21T07:09:52.868Z,15.64
2019-04-21T07:10:30.769Z,15.77
2019-04-21T07:10:53.281Z,15.77
2019-04-21T07:11:26.708Z,15.71
2019-04-21T07:12:04.202Z,15.63
2019-04-21T07:12:38.998Z,15.68
2019-04-21T07:13:19.194Z,15.78
2019-04-21T07:14:13.450Z,15.85
2019-04-21T07:14:32.030Z,15.80
2019-04-21T07:15:11.360Z,15.76
2019-04-21T07:15:53.828Z,15.86
2019-04-21T07:16:25.738Z,15.98
2019-04-21T07:17:06.399Z,16.07
2019-04-21T07:17:38.980Z,16.01
2019-04-21T07:18:25.323Z,16.02
2019-04-21T07:19:07.155Z,16.00
2019-04-21T07:19:40.964Z,16.04
2019-04-21T07:20:12.839Z,16.02
2019-04-21T07:20:49.071Z,16.00
2019-04-21T07:21:30.126Z,16.02
2019-04-21T07:22:03.079Z,16.15
2019-04-21T07:22:44.680Z,16.18
2019-04-21T07:23:28.413Z,16.18
2019-04-21T07:24:02.010Z,16.23
2019-04-21T07:24:41.735Z,16.29
2019-04-21T07:25:13.767Z,16.33
2019-04-21T07:25:54.811Z,16.46
2019-04-21T07:26:29.627Z,16.45
2019-04-21T07:27:09.906Z,16.44
2019-04-21T07:28:21.998Z,16.62
2019-04-21T07:29:02.909Z,16.61
2019-04-21T07:29:39.591Z,16.72
2019-04-21T07:30:14.996Z,16.74
2019-04-21T07:30:51.861Z,16.84
2019-04-21T07:31:31.952Z,16.91
2019-04-21T07:32:04.411Z,16.87
2019-04-21T07:32:46.012Z,16.95
2019-04-21T07:33:43.202Z,16.97
2019-04-21T07:34:01.998Z,16.92
2019-04-21T07:34:48.000Z,16.97
2019-04-21T07:35:17.833Z,17.01
2019-04-21T07:35:51.821Z,17.04
2019-04-21T07:36:38.220Z,17.08
2019-04-21T07:37:28.146Z,16.99
2019-04-21T07:37:41.057Z,16.97
2019-04-21T07:38:24.487Z,17.05
2019-04-21T07:38:56.764Z,17.16
2019-04-21T07:39:35.694Z,17.21
2019-04-21T07:40:11.484Z,17.27
2019-04-21T07:40:45.890Z,17.36
2019-04-21T07:41:18.660Z,17.37
2019-04-21T07:42:04.609Z,17.41
2019-04-21T07:42:42.679Z,17.43
2019-04-21T07:43:19.727Z,17.30
2019-04-21T07:43:57.194Z,17.30
2019-04-21T07:44:34.927Z,17.30
2019-04-21T07:45:13.360Z,17.47
2019-04-21T07:45:51.584Z,17.49
2019-04-21T07:46:25.695Z,17.42
2019-04-21T07:47:11.848Z,17.42
2019-04-21T07:47:55.199Z,17.53
2019-04-21T07:48:43.265Z,17.50
2019-04-21T07:49:40.038Z,17.42
2019-04-21T07:50:20.627Z,17.49
2019-04-21T07:51:11.074Z,17.58
2019-04-21T07:52:18.825Z,17.56
2019-04-21T07:53:14.470Z,17.55
2019-04-21T07:53:55.819Z,17.71
2019-04-21T07:55:22.072Z,17.90
2019-04-21T07:56:09.371Z,18.01
2019-04-21T07:56:44.286Z,18.05
2019-04-21T07:57:31.652Z,18.05
2019-04-21T07:58:14.598Z,17.90
2019-04-21T07:58:58.385Z,17.97
2019-04-21T07:59:43.147Z,17.92
2019-04-21T08:01:24.336Z,17.79
2019-04-21T08:02:00.992Z,17.81
2019-04-21T08:02:45.434Z,17.91
2019-04-21T08:03:24.753Z,17.93
2019-04-21T08:03:58.143Z,18.00
2019-04-21T08:05:13.455Z,18.10
2019-04-21T08:05:53.691Z,18.18
2019-04-21T08:06:33.930Z,18.12
2019-04-21T08:07:11.739Z,18.20
2019-04-21T08:08:15.817Z,18.19
2019-04-21T08:09:03.921Z,18.11
2019-04-21T08:09:37.192Z,18.12
2019-04-21T08:10:14.465Z,18.07
2019-04-21T08:10:55.311Z,18.08
2019-04-21T08:11:28.162Z,18.07
2019-04-21T08:12:04.167Z,18.09
2019-04-21T08:12:41.965Z,18.10
2019-04-21T08:13:30.763Z,18.14
2019-04-21T08:14:01.104Z,18.17
2019-04-21T08:14:45.120Z,18.23
2019-04-21T08:15:24.889Z,18.22
2019-04-21T08:15:51.303Z,18.31
2019-04-21T08:16:30.570Z,18.38
2019-04-21T08:17:11.806Z,18.34
2019-04-21T08:17:47.124Z,18.45
2019-04-21T08:18:28.736Z,18.49
2019-04-21T08:19:09.625Z,18.52
2019-04-21T08:19:39.299Z,18.48
2019-04-21T08:20:20.574Z,18.53
2019-04-21T08:20:53.420Z,18.57
2019-04-21T08:21:35.436Z,18.62
2019-04-21T08:22:51.726Z,18.62
2019-04-21T08:24:06.360Z,18.49
2019-04-21T08:24:43.836Z,18.48
2019-04-21T08:25:20.561Z,18.38
2019-04-21T08:27:03.233Z,18.48
2019-04-21T08:27:17.572Z,18.56
2019-04-21T08:27:56.970Z,18.62
2019-04-21T08:28:32.080Z,18.68
2019-04-21T08:29:18.903Z,18.78
2019-04-21T08:31:05.898Z,18.86
2019-04-21T08:31:48.550Z,18.84
2019-04-21T08:32:26.622Z,18.86
2019-04-21T08:33:38.763Z,18.75
2019-04-21T08:34:15.037Z,18.82
2019-04-21T08:35:09.504Z,18.87
2019-04-21T08:36:46.191Z,18.98
2019-04-21T08:37:24.865Z,18.97
2019-04-21T08:38:03.505Z,18.95
2019-04-21T08:38:42.624Z,18.98
2019-04-21T08:39:21.459Z,19.10
2019-04-21T08:40:04.489Z,19.10
2019-04-21T08:40:36.137Z,19.16
2019-04-21T08:41:52.358Z,19.22
2019-04-21T08:42:25.606Z,19.20
2019-04-21T08:43:02.815Z,19.28
2019-04-21T08:44:25.714Z,19.44
2019-04-21T08:45:03.882Z,19.39
2019-04-21T08:46:55.081Z,19.46
2019-04-21T08:47:33.896Z,19.45
2019-04-21T08:48:10.291Z,19.42
2019-04-21T08:48:52.717Z,19.51
2019-04-21T08:49:24.322Z,19.62
2019-04-21T08:50:00.468Z,19.63
2019-04-21T08:50:41.459Z,19.54
2019-04-21T08:52:06.759Z,19.59
2019-04-21T08:53:35.691Z,19.67
2019-04-21T08:54:28.018Z,19.70
2019-04-21T08:55:12.465Z,19.77
2019-04-21T08:56:10.314Z,19.71
2019-04-21T08:57:24.735Z,19.83
2019-04-21T08:59:12.782Z,19.95
2019-04-21T09:00:08.732Z,19.94
2019-04-21T09:00:56.310Z,19.92
2019-04-21T09:01:48.883Z,19.96
2019-04-21T09:02:43.193Z,19.97
2019-04-21T09:03:19.562Z,19.97
2019-04-21T09:04:06.900Z,20.01
2019-04-21T09:04:41.179Z,20.12
2019-04-21T09:05:26.567Z,20.24
2019-04-21T09:06:04.689Z,20.21
2019-04-21T09:06:54.159Z,20.26
2019-04-21T09:07:20.061Z,20.31
2019-04-21T09:07:55.259Z,20.35
2019-04-21T09:08:37.593Z,20.39
2019-04-21T09:09:11.317Z,20.44
2019-04-21T09:09:46.838Z,20.49
2019-04-21T09:10:21.995Z,20.53
2019-04-21T09:10:59.370Z,20.54
2019-04-21T09:11:38.877Z,20.56
2019-04-21T09:12:15.013Z,20.54
2019-04-21T09:12:51.794Z,20.56
2019-04-21T09:13:29.727Z,20.54
2019-04-21T09:14:13.647Z,20.39
2019-04-21T09:14:51.252Z,20.55
2019-04-21T09:15:24.909Z,20.48
2019-04-21T09:16:05.130Z,20.50
2019-04-21T09:16:41.122Z,20.59
2019-04-21T09:17:14.864Z,20.58
2019-04-21T09:17:54.743Z,20.51
2019-04-21T09:18:32.510Z,20.62
2019-04-21T09:19:11.782Z,20.66
2019-04-21T09:20:13.822Z,20.74
2019-04-21T09:20:34.664Z,20.74
2019-04-21T09:21:04.580Z,20.80
2019-04-21T09:21:51.612Z,20.86
2019-04-21T09:22:28.760Z,20.87
2019-04-21T09:23:00.983Z,20.88
2019-04-21T09:23:40.572Z,20.90
2019-04-21T09:24:16.202Z,20.94
2019-04-21T09:25:12.212Z,20.97
2019-04-21T09:26:17.069Z,21.09
2019-04-21T09:26:48.482Z,21.05
2019-04-21T09:27:29.296Z,21.00
2019-04-21T09:28:08.070Z,20.91
2019-04-21T09:28:36.737Z,20.99
2019-04-21T09:29:13.707Z,20.93
2019-04-21T09:29:48.564Z,20.85
2019-04-21T09:30:17.537Z,20.89
2019-04-21T09:30:58.527Z,21.01
2019-04-21T09:31:37.434Z,20.95
2019-04-21T09:32:15.540Z,20.94
2019-04-21T09:32:53.436Z,21.05
2019-04-21T09:33:33.434Z,21.16
2019-04-21T09:34:08.423Z,21.21
2019-04-21T09:34:45.612Z,21.32
2019-04-21T09:35:22.263Z,21.41
2019-04-21T09:36:02.608Z,21.46
2019-04-21T09:36:44.206Z,21.51
2019-04-21T09:37:26.859Z,21.54
2019-04-21T09:38:00.313Z,21.58
2019-04-21T09:38:37.161Z,21.64